createdAt,value
2023-05-09T00:00:38.977Z,191.04
2023-05-09T00:01:38.990Z,194.68
2023-05-09T00:02:38.992Z,193.90
2023-05-09T00:03:38.971Z,194.27
2023-05-09T00:04:39.014Z,195.57
2023-05-09T00:05:39.018Z,191.62
2023-05-09T00:06:38.955Z,188.60
2023-05-09T00:07:38.940Z,184.85
2023-05-09T00:08:38.936Z,184.89
2023-05-09T00:09:38.924Z,186.71
2023-05-09T00:10:38.914Z,183.32
2023-05-09T00:11:38.976Z,186.83
2023-05-09T00:12:38.923Z,187.54
2023-05-09T00:13:38.897Z,188.12
2023-05-09T00:14:38.880Z,186.63
2023-05-09T00:15:38.858Z,187.75
2023-05-09T00:16:38.967Z,186.43
2023-05-09T00:17:38.929Z,188.08
2023-05-09T00:18:38.874Z,187.80
2023-05-09T00:19:38.887Z,186.49
2023-05-09T00:20:38.835Z,186.63
2023-05-09T00:21:38.832Z,186.49
2023-05-09T00:22:38.808Z,189.54
2023-05-09T00:23:38.876Z,191.42
2023-05-09T00:24:38.821Z,192.14
2023-05-09T00:25:38.827Z,192.80
2023-05-09T00:26:38.798Z,193.42
2023-05-09T00:27:38.871Z,192.74
2023-05-09T00:28:38.771Z,197.37
2023-05-09T00:29:38.796Z,198.77
2023-05-09T00:30:38.798Z,199.50
2023-05-09T00:31:38.786Z,199.03
2023-05-09T00:32:38.809Z,199.29
2023-05-09T00:33:38.749Z,202.14
2023-05-09T00:34:38.737Z,200.67
2023-05-09T00:35:38.749Z,199.20
2023-05-09T00:36:38.800Z,200.76
2023-05-09T00:37:38.870Z,202.36
2023-05-09T00:38:38.908Z,202.77
2023-05-09T00:39:38.952Z,203.83
2023-05-09T00:40:39.041Z,204.82
2023-05-09T00:41:39.022Z,206.55
2023-05-09T00:42:39.072Z,206.94
2023-05-09T00:43:39.174Z,204.36
2023-05-09T00:44:39.151Z,198.63
2023-05-09T00:45:39.146Z,194.50
2023-05-09T00:46:39.176Z,192.50
2023-05-09T00:47:39.273Z,192.65
2023-05-09T00:48:39.218Z,191.72
2023-05-09T00:49:39.215Z,194.23
2023-05-09T00:50:39.226Z,195.99
2023-05-09T00:51:39.286Z,198.60
2023-05-09T00:52:39.354Z,196.81
2023-05-09T00:53:39.346Z,195.62
2023-05-09T00:54:39.460Z,194.38
2023-05-09T00:55:39.465Z,191.50
2023-05-09T00:56:39.530Z,187.44
2023-05-09T00:57:39.595Z,185.21
2023-05-09T00:58:39.663Z,188.62
2023-05-09T00:59:39.750Z,192.69
2023-05-09T01:00:39.709Z,193.58
2023-05-09T01:01:39.794Z,194.03
2023-05-09T01:02:39.822Z,193.07
2023-05-09T01:03:40.002Z,194.01
2023-05-09T01:04:39.896Z,192.12
2023-05-09T01:05:39.919Z,187.62
2023-05-09T01:06:39.952Z,185.35
2023-05-09T01:07:39.983Z,188.20
2023-05-09T01:08:39.989Z,192.44
2023-05-09T01:09:40.032Z,193.04
2023-05-09T01:10:40.071Z,191.58
2023-05-09T01:11:40.089Z,182.90
2023-05-09T01:12:40.105Z,170.28
2023-05-09T01:13:40.097Z,164.78
2023-05-09T01:14:40.130Z,164.17
2023-05-09T01:15:40.276Z,169.80
2023-05-09T01:16:40.138Z,168.62
2023-05-09T01:17:40.230Z,171.29
2023-05-09T01:18:40.177Z,176.51
2023-05-09T01:19:40.239Z,179.52
2023-05-09T01:20:40.223Z,182.46
2023-05-09T01:21:40.237Z,183.53
2023-05-09T01:22:40.277Z,179.42
2023-05-09T01:23:40.313Z,178.18
2023-05-09T01:24:40.319Z,181.20
2023-05-09T01:25:40.378Z,181.04
2023-05-09T01:26:40.414Z,183.61
2023-05-09T01:27:40.484Z,186.16
2023-05-09T01:28:40.502Z,185.99
2023-05-09T01:29:40.518Z,186.93
2023-05-09T01:30:40.533Z,190.06
2023-05-09T01:31:40.673Z,190.22
2023-05-09T01:32:40.644Z,183.09
2023-05-09T01:33:40.629Z,176.70
2023-05-09T01:34:40.642Z,169.66
2023-05-09T01:35:40.655Z,165.51
2023-05-09T01:36:40.702Z,165.42
2023-05-09T01:37:40.719Z,169.74
2023-05-09T01:38:40.758Z,163.39
2023-05-09T01:39:40.826Z,165.34
2023-05-09T01:40:40.838Z,168.64
2023-05-09T01:41:40.891Z,169.17
2023-05-09T01:42:40.877Z,167.98
2023-05-09T01:43:41.000Z,171.92
2023-05-09T01:44:40.956Z,172.50
2023-05-09T01:45:40.978Z,169.79
2023-05-09T01:46:41.086Z,172.06
2023-05-09T01:47:41.135Z,175.07
2023-05-09T01:48:41.117Z,177.22
2023-05-09T01:49:41.165Z,180.13
2023-05-09T01:50:41.218Z,186.17
2023-05-09T01:51:43.647Z,189.33
2023-05-09T01:52:41.283Z,193.62
2023-05-09T01:53:41.225Z,196.09
2023-05-09T01:54:41.226Z,198.29
2023-05-09T01:55:41.240Z,197.37
2023-05-09T01:56:41.207Z,199.13
2023-05-09T01:57:41.223Z,200.33
2023-05-09T01:58:41.191Z,201.68
2023-05-09T01:59:41.197Z,204.94
2023-05-09T02:00:41.249Z,206.41
2023-05-09T02:01:41.197Z,204.97
2023-05-09T02:02:41.268Z,206.02
2023-05-09T02:03:41.265Z,199.17
2023-05-09T02:04:41.143Z,197.37
2023-05-09T02:05:41.205Z,195.95
2023-05-09T02:06:41.149Z,193.59
2023-05-09T02:07:41.136Z,193.00
2023-05-09T02:08:41.148Z,189.98
2023-05-09T02:09:41.163Z,190.13
2023-05-09T02:10:41.157Z,189.39
2023-05-09T02:11:41.127Z,188.68
2023-05-09T02:12:41.176Z,189.00
2023-05-09T02:13:41.126Z,188.30
2023-05-09T02:14:41.083Z,184.83
2023-05-09T02:15:41.089Z,183.78
2023-05-09T02:16:41.138Z,186.05
2023-05-09T02:17:41.096Z,188.57
2023-05-09T02:18:41.078Z,193.47
2023-05-09T02:19:41.148Z,193.89
2023-05-09T02:20:41.077Z,192.06
2023-05-09T02:21:41.094Z,193.28
2023-05-09T02:22:41.093Z,196.83
2023-05-09T02:23:41.041Z,201.72
2023-05-09T02:24:41.135Z,204.07
2023-05-09T02:25:41.050Z,202.93
2023-05-09T02:26:41.028Z,205.88
2023-05-09T02:27:41.031Z,206.43
2023-05-09T02:28:40.982Z,202.48
2023-05-09T02:29:40.997Z,197.29
2023-05-09T02:30:41.017Z,197.98
2023-05-09T02:31:41.015Z,197.98
2023-05-09T02:32:41.040Z,198.86
2023-05-09T02:33:40.958Z,198.50
2023-05-09T02:34:40.983Z,199.03
2023-05-09T02:35:41.020Z,200.39
2023-05-09T02:36:40.936Z,201.18
2023-05-09T02:37:40.944Z,200.92
2023-05-09T02:38:40.923Z,198.03
2023-05-09T02:39:40.978Z,198.85
2023-05-09T02:40:40.948Z,201.42
2023-05-09T02:41:40.911Z,201.29
2023-05-09T02:42:40.916Z,204.06
2023-05-09T02:43:40.929Z,206.82
2023-05-09T02:44:40.933Z,208.11
2023-05-09T02:45:40.975Z,207.90
2023-05-09T02:46:40.864Z,207.25
2023-05-09T02:47:40.932Z,205.15
2023-05-09T02:48:40.903Z,205.07
2023-05-09T02:49:40.905Z,204.58
2023-05-09T02:50:40.940Z,206.62
2023-05-09T02:51:40.926Z,210.03
2023-05-09T02:52:40.843Z,212.75
2023-05-09T02:53:40.846Z,215.07
2023-05-09T02:54:40.853Z,217.44
2023-05-09T02:55:40.851Z,211.90
2023-05-09T02:56:40.920Z,212.86
2023-05-09T02:57:40.805Z,213.90
2023-05-09T02:58:40.820Z,216.53
2023-05-09T02:59:40.822Z,215.98
2023-05-09T03:00:40.830Z,216.52
2023-05-09T03:01:40.822Z,216.93
2023-05-09T03:02:40.835Z,218.18
2023-05-09T03:03:40.908Z,216.92
2023-05-09T03:04:40.770Z,218.44
2023-05-09T03:05:40.748Z,218.02
2023-05-09T03:06:40.750Z,217.66
2023-05-09T03:07:40.833Z,217.38
2023-05-09T03:08:40.753Z,215.58
2023-05-09T03:09:41.304Z,216.39
2023-05-09T03:10:40.738Z,217.02
2023-05-09T03:11:40.724Z,217.10
2023-05-09T03:12:40.771Z,218.48
2023-05-09T03:13:40.736Z,216.61
2023-05-09T03:14:40.768Z,212.89
2023-05-09T03:15:40.731Z,213.93
2023-05-09T03:16:40.712Z,214.35
2023-05-09T03:17:40.731Z,217.91
2023-05-09T03:18:40.690Z,219.60
2023-05-09T03:19:40.688Z,222.31
2023-05-09T03:20:40.691Z,223.22
2023-05-09T03:21:40.708Z,218.42
2023-05-09T03:22:40.732Z,215.94
2023-05-09T03:23:40.824Z,214.24
2023-05-09T03:24:40.778Z,211.63
2023-05-09T03:25:40.831Z,208.30
2023-05-09T03:26:40.822Z,203.78
2023-05-09T03:27:40.852Z,203.01
2023-05-09T03:28:40.856Z,201.74
2023-05-09T03:29:40.911Z,200.50
2023-05-09T03:30:40.928Z,201.18
2023-05-09T03:31:40.955Z,199.91
2023-05-09T03:32:40.998Z,199.24
2023-05-09T03:33:40.985Z,196.87
2023-05-09T03:34:41.014Z,193.64
2023-05-09T03:35:41.043Z,191.65
2023-05-09T03:36:41.045Z,191.45
2023-05-09T03:37:41.105Z,191.38
2023-05-09T03:38:41.176Z,194.55
2023-05-09T03:39:41.299Z,197.69
2023-05-09T03:40:41.248Z,195.89
2023-05-09T03:41:41.307Z,196.39
2023-05-09T03:42:41.345Z,199.91
2023-05-09T03:43:41.414Z,205.74
2023-05-09T03:44:41.404Z,208.67
2023-05-09T03:45:41.470Z,207.32
2023-05-09T03:46:41.458Z,208.49
2023-05-09T03:47:41.596Z,215.31
2023-05-09T03:48:41.540Z,217.77
2023-05-09T03:49:41.600Z,222.01
2023-05-09T03:50:41.607Z,223.77
2023-05-09T03:51:42.213Z,224.45
2023-05-09T03:52:41.661Z,222.82
2023-05-09T03:53:41.688Z,223.24
2023-05-09T03:54:41.722Z,220.90
2023-05-09T03:55:41.803Z,219.23
2023-05-09T03:56:41.748Z,218.07
2023-05-09T03:57:41.752Z,222.14
2023-05-09T03:58:41.796Z,225.64
2023-05-09T03:59:41.825Z,226.36
2023-05-09T04:00:41.852Z,227.59
2023-05-09T04:01:41.867Z,230.32
2023-05-09T04:02:41.976Z,231.39
2023-05-09T04:03:42.035Z,233.05
2023-05-09T04:04:41.955Z,231.90
2023-05-09T04:05:41.979Z,224.25
2023-05-09T04:06:41.992Z,215.87
2023-05-09T04:07:42.061Z,211.23
2023-05-09T04:08:42.106Z,214.44
2023-05-09T04:09:42.089Z,217.73
2023-05-09T04:10:42.122Z,215.96
2023-05-09T04:11:42.257Z,217.17
2023-05-09T04:12:42.232Z,217.43
2023-05-09T04:13:42.225Z,220.29
2023-05-09T04:14:42.268Z,233.40
2023-05-09T04:15:42.296Z,225.36
2023-05-09T04:16:42.403Z,227.04
2023-05-09T04:17:42.394Z,234.55
2023-05-09T04:18:42.411Z,243.23
2023-05-09T04:19:42.457Z,244.84
2023-05-09T04:20:42.513Z,243.77
2023-05-09T04:21:42.583Z,246.31
2023-05-09T04:22:43.115Z,246.01
2023-05-09T04:23:42.621Z,248.52
2023-05-09T04:24:42.652Z,250.00
2023-05-09T04:25:42.663Z,249.98
2023-05-09T04:26:42.708Z,249.39
2023-05-09T04:27:42.810Z,248.82
2023-05-09T04:28:42.761Z,247.96
2023-05-09T04:29:42.762Z,247.84
2023-05-09T04:30:42.851Z,248.96
2023-05-09T04:31:42.932Z,248.31
2023-05-09T04:32:42.880Z,248.05
2023-05-09T04:33:42.889Z,246.16
2023-05-09T04:34:42.911Z,241.14
2023-05-09T04:35:42.938Z,243.42
2023-05-09T04:36:42.928Z,249.09
2023-05-09T04:37:43.006Z,249.04
2023-05-09T04:38:43.017Z,249.92
2023-05-09T04:39:43.089Z,249.75
2023-05-09T04:40:43.161Z,249.12
2023-05-09T04:41:43.157Z,250.00
2023-05-09T04:42:43.147Z,245.72
2023-05-09T04:43:43.261Z,245.24
2023-05-09T04:44:43.243Z,249.00
2023-05-09T04:45:43.193Z,247.05
2023-05-09T04:46:43.250Z,245.07
2023-05-09T04:47:43.278Z,248.50
2023-05-09T04:48:43.306Z,244.48
2023-05-09T04:49:43.307Z,243.03
2023-05-09T04:50:43.401Z,245.00
2023-05-09T04:51:43.424Z,249.94
2023-05-09T04:52:43.454Z,247.72
2023-05-09T04:53:43.486Z,246.08
2023-05-09T04:54:43.554Z,246.49
2023-05-09T04:55:43.609Z,248.20
2023-05-09T04:56:43.613Z,247.58
2023-05-09T04:57:43.609Z,248.86
2023-05-09T04:58:43.615Z,249.36
2023-05-09T04:59:43.619Z,245.53
2023-05-09T05:00:43.677Z,246.47
2023-05-09T05:01:43.810Z,246.19
2023-05-09T05:02:43.802Z,247.07
2023-05-09T05:03:43.801Z,245.63
2023-05-09T05:04:43.852Z,245.32
2023-05-09T05:05:43.989Z,246.00
2023-05-09T05:06:43.939Z,245.14
2023-05-09T05:07:43.995Z,240.99
2023-05-09T05:08:44.050Z,240.70
2023-05-09T05:09:44.107Z,239.29
2023-05-09T05:10:44.096Z,240.94
2023-05-09T05:11:53.157Z,235.93
2023-05-09T05:12:45.218Z,235.99
2023-05-09T05:13:44.165Z,236.62
2023-05-09T05:14:44.141Z,238.72
2023-05-09T05:15:44.195Z,242.51
2023-05-09T05:16:44.152Z,248.10
2023-05-09T05:17:44.151Z,247.86
2023-05-09T05:18:44.126Z,249.78
2023-05-09T05:19:44.079Z,246.47
2023-05-09T05:20:44.075Z,245.96
2023-05-09T05:21:44.081Z,248.00
2023-05-09T05:22:44.085Z,249.45
2023-05-09T05:23:44.096Z,247.96
2023-05-09T05:24:44.074Z,246.36
2023-05-09T05:25:44.104Z,244.18
2023-05-09T05:26:44.060Z,235.91
2023-05-09T05:27:44.060Z,234.43
2023-05-09T05:28:44.082Z,237.90
2023-05-09T05:29:44.032Z,237.60
2023-05-09T05:30:44.030Z,234.99
2023-05-09T05:31:44.156Z,231.71
2023-05-09T05:32:44.077Z,228.94
2023-05-09T05:33:44.097Z,227.90
2023-05-09T05:34:44.168Z,227.19
2023-05-09T05:35:44.162Z,224.04
2023-05-09T05:36:44.170Z,220.50
2023-05-09T05:37:44.215Z,216.32
2023-05-09T05:38:44.243Z,213.84
2023-05-09T05:39:44.332Z,213.18
2023-05-09T05:40:44.399Z,216.20
2023-05-09T05:41:44.405Z,220.89
2023-05-09T05:42:44.552Z,222.68
2023-05-09T05:43:44.519Z,218.54
2023-05-09T05:44:44.524Z,217.82
2023-05-09T05:45:44.564Z,217.74
2023-05-09T05:46:44.564Z,223.00
2023-05-09T05:47:44.729Z,224.35
2023-05-09T05:48:44.671Z,224.73
2023-05-09T05:49:44.729Z,225.04
2023-05-09T05:50:44.635Z,222.46
2023-05-09T05:51:44.639Z,216.73
2023-05-09T05:52:44.687Z,214.00
2023-05-09T05:53:44.722Z,205.36
2023-05-09T05:54:44.753Z,195.26
2023-05-09T05:55:44.798Z,185.17
2023-05-09T05:56:44.864Z,183.45
2023-05-09T05:57:44.859Z,185.80
2023-05-09T05:58:44.880Z,189.24
2023-05-09T05:59:44.976Z,181.15
2023-05-09T06:00:44.989Z,178.44
2023-05-09T06:01:44.998Z,186.19
2023-05-09T06:02:45.081Z,190.63
2023-05-09T06:03:45.213Z,193.98
2023-05-09T06:04:45.022Z,195.53
2023-05-09T06:05:45.033Z,193.28
2023-05-09T06:06:45.071Z,186.75
2023-05-09T06:07:45.113Z,177.03
2023-05-09T06:08:45.141Z,174.93
2023-05-09T06:09:45.206Z,176.55
2023-05-09T06:10:45.242Z,186.43
2023-05-09T06:11:45.315Z,189.15
2023-05-09T06:12:45.399Z,196.87
2023-05-09T06:13:45.368Z,194.70
2023-05-09T06:14:45.382Z,188.23
2023-05-09T06:15:45.448Z,181.21
2023-05-09T06:16:45.476Z,175.91
2023-05-09T06:17:45.567Z,175.47
2023-05-09T06:18:45.549Z,176.62
2023-05-09T06:19:45.687Z,184.70
2023-05-09T06:20:45.676Z,189.99
2023-05-09T06:21:45.668Z,190.90
2023-05-09T06:22:45.711Z,194.68
2023-05-09T06:24:45.736Z,185.37
2023-05-09T06:25:45.762Z,180.64
2023-05-09T06:26:45.708Z,183.04
2023-05-09T06:27:45.732Z,180.57
2023-05-09T06:28:45.682Z,178.61
2023-05-09T06:29:45.739Z,191.81
2023-05-09T06:30:45.698Z,192.16
2023-05-09T06:31:45.702Z,192.91
2023-05-09T06:32:45.694Z,200.30
2023-05-09T06:33:45.665Z,205.84
2023-05-09T06:34:45.656Z,203.69
2023-05-09T06:35:46.068Z,205.29
2023-05-09T06:36:45.644Z,199.63
2023-05-09T06:37:48.263Z,186.56
2023-05-09T06:38:45.624Z,186.87
2023-05-09T06:39:45.620Z,189.67
2023-05-09T06:40:45.619Z,192.05
2023-05-09T06:41:45.631Z,190.84
2023-05-09T06:42:45.637Z,190.51
2023-05-09T06:43:45.624Z,189.30
2023-05-09T06:44:45.586Z,192.41
2023-05-09T06:45:45.594Z,198.60
2023-05-09T06:46:45.749Z,201.19
2023-05-09T06:47:45.620Z,202.18
2023-05-09T06:48:45.580Z,201.20
2023-05-09T06:49:45.549Z,201.56
2023-05-09T06:50:45.557Z,202.33
2023-05-09T06:51:45.662Z,200.73
2023-05-09T06:52:45.518Z,197.81
2023-05-09T06:53:45.502Z,199.67
2023-05-09T06:54:45.520Z,210.17
2023-05-09T06:55:45.518Z,211.29
2023-05-09T06:56:45.539Z,211.91
2023-05-09T06:57:46.016Z,209.76
2023-05-09T06:58:45.961Z,208.64
2023-05-09T06:59:45.972Z,204.68
2023-05-09T07:00:45.516Z,206.96
2023-05-09T07:01:45.535Z,214.11
2023-05-09T07:02:45.552Z,220.22
2023-05-09T07:03:45.975Z,218.41
2023-05-09T07:04:45.521Z,216.68
2023-05-09T07:05:45.468Z,223.52
2023-05-09T07:06:45.465Z,222.97
2023-05-09T07:07:45.582Z,221.43
2023-05-09T07:08:45.431Z,223.93
2023-05-09T07:09:45.435Z,220.84
2023-05-09T07:10:45.444Z,227.23
2023-05-09T07:11:45.427Z,230.47
2023-05-09T07:12:45.430Z,228.70
2023-05-09T07:13:45.401Z,231.32
2023-05-09T07:14:45.418Z,232.94
2023-05-09T07:15:45.606Z,233.29
2023-05-09T07:16:45.471Z,231.45
2023-05-09T07:17:45.406Z,233.77
2023-05-09T07:18:45.391Z,233.03
2023-05-09T07:19:45.364Z,232.58
2023-05-09T07:20:45.382Z,234.12
2023-05-09T07:21:45.346Z,238.58
2023-05-09T07:22:45.356Z,240.99
2023-05-09T07:23:45.426Z,246.96
2023-05-09T07:24:45.341Z,246.36
2023-05-09T07:25:45.507Z,239.39
2023-05-09T07:26:45.489Z,238.33
2023-05-09T07:27:45.332Z,245.94
2023-05-09T07:28:45.289Z,249.63
2023-05-09T07:29:45.294Z,233.80
2023-05-09T07:30:45.519Z,226.35
2023-05-09T07:31:45.346Z,221.36
2023-05-09T07:32:45.328Z,215.97
2023-05-09T07:33:45.295Z,209.61
2023-05-09T07:34:45.271Z,204.24
2023-05-09T07:35:45.490Z,205.82
2023-05-09T07:36:45.504Z,204.32
2023-05-09T07:37:45.271Z,202.30
2023-05-09T07:38:45.291Z,205.24
2023-05-09T07:39:45.331Z,207.55
2023-05-09T07:40:45.341Z,208.51
2023-05-09T07:41:46.421Z,212.98
2023-05-09T07:42:45.365Z,212.85
2023-05-09T07:43:45.430Z,213.80
2023-05-09T07:44:45.379Z,216.64
2023-05-09T07:45:45.448Z,213.60
2023-05-09T07:46:45.470Z,205.60
2023-05-09T07:47:45.543Z,205.34
2023-05-09T07:48:45.440Z,207.04
2023-05-09T07:49:45.529Z,202.58
2023-05-09T07:50:45.571Z,201.61
2023-05-09T07:51:45.989Z,197.23
2023-05-09T07:52:45.682Z,203.60
2023-05-09T07:53:45.710Z,203.61
2023-05-09T07:54:46.024Z,207.54
2023-05-09T07:55:45.882Z,215.02
2023-05-09T07:56:45.829Z,216.50
2023-05-09T07:57:45.819Z,215.08
2023-05-09T07:58:45.885Z,202.64
2023-05-09T07:59:45.852Z,189.15
2023-05-09T08:00:45.918Z,185.01
2023-05-09T08:01:45.973Z,190.26
2023-05-09T08:02:46.015Z,193.41
2023-05-09T08:03:46.113Z,197.56
2023-05-09T08:04:46.021Z,191.45
2023-05-09T08:05:46.068Z,180.53
2023-05-09T08:06:46.107Z,173.48
2023-05-09T08:07:46.455Z,171.00
2023-05-09T08:08:46.156Z,172.14
2023-05-09T08:09:46.171Z,175.43
2023-05-09T08:10:46.169Z,175.57
2023-05-09T08:11:46.561Z,169.66
2023-05-09T08:12:46.213Z,174.09
2023-05-09T08:13:46.495Z,178.10
2023-05-09T08:14:46.255Z,165.21
2023-05-09T08:15:46.331Z,165.08
2023-05-09T08:16:46.311Z,152.62
2023-05-09T08:17:46.442Z,145.28
2023-05-09T08:18:46.428Z,168.60
2023-05-09T08:19:46.440Z,161.98
2023-05-09T08:20:46.502Z,153.69
2023-05-09T08:21:46.511Z,141.85
2023-05-09T08:22:46.535Z,129.17
2023-05-09T08:23:46.605Z,118.49
2023-05-09T08:24:46.640Z,106.37
2023-05-09T08:25:47.032Z,103.95
2023-05-09T08:26:46.725Z,114.53
2023-05-09T08:27:46.926Z,111.59
2023-05-09T08:28:46.766Z,141.73
2023-05-09T08:29:46.819Z,154.39
2023-05-09T08:30:46.817Z,139.45
2023-05-09T08:31:46.912Z,164.69
2023-05-09T08:32:47.067Z,162.22
2023-05-09T08:33:46.943Z,138.17
2023-05-09T08:34:46.970Z,149.36
2023-05-09T08:35:47.067Z,144.83
2023-05-09T08:36:47.097Z,149.90
2023-05-09T08:37:47.128Z,150.86
2023-05-09T08:38:47.300Z,167.60
2023-05-09T08:39:47.185Z,187.27
2023-05-09T08:40:47.233Z,187.92
2023-05-09T08:41:47.256Z,163.02
2023-05-09T08:42:47.409Z,148.77
2023-05-09T08:43:47.589Z,143.44
2023-05-09T08:44:47.435Z,143.49
2023-05-09T08:45:47.483Z,148.95
2023-05-09T08:46:47.541Z,148.94
2023-05-09T08:47:47.609Z,148.39
2023-05-09T08:48:47.597Z,134.10
2023-05-09T08:49:47.659Z,123.49
2023-05-09T08:50:47.698Z,122.00
2023-05-09T08:51:47.771Z,115.68
2023-05-09T08:52:47.815Z,109.36
2023-05-09T08:53:48.016Z,84.20
2023-05-09T08:54:48.003Z,74.71
2023-05-09T08:55:47.890Z,78.64
2023-05-09T08:56:48.026Z,84.45
2023-05-09T08:57:47.941Z,88.92
2023-05-09T08:58:48.009Z,89.56
2023-05-09T08:59:48.090Z,94.75
2023-05-09T09:00:48.017Z,96.00
2023-05-09T09:01:48.102Z,93.19
2023-05-09T09:02:48.103Z,79.42
2023-05-09T09:03:48.090Z,79.94
2023-05-09T09:04:48.209Z,85.16
2023-05-09T09:05:48.241Z,80.18
2023-05-09T09:06:48.519Z,84.59
2023-05-09T09:07:48.515Z,87.08
2023-05-09T09:08:48.512Z,86.88
2023-05-09T09:09:48.359Z,87.28
2023-05-09T09:10:48.536Z,67.64
2023-05-09T09:11:48.432Z,57.99
2023-05-09T09:12:50.009Z,59.09
2023-05-09T09:13:48.523Z,56.38
2023-05-09T09:14:49.041Z,59.97
2023-05-09T09:15:49.094Z,51.94
2023-05-09T09:16:48.736Z,63.65
2023-05-09T09:17:48.728Z,77.44
2023-05-09T09:18:48.682Z,58.25
2023-05-09T09:19:48.761Z,27.06
2023-05-09T09:20:49.011Z,19.43
2023-05-09T09:21:48.778Z,28.22
2023-05-09T09:22:48.818Z,29.39
2023-05-09T09:23:48.953Z,41.49
2023-05-09T09:24:48.901Z,57.96
2023-05-09T09:25:48.935Z,64.88
2023-05-09T09:26:49.032Z,61.04
2023-05-09T09:27:48.944Z,57.81
2023-05-09T09:28:49.037Z,52.83
2023-05-09T09:29:49.028Z,57.09
2023-05-09T09:30:49.508Z,46.82
2023-05-09T09:31:49.196Z,54.00
2023-05-09T09:32:49.176Z,48.97
2023-05-09T09:33:49.162Z,64.55
2023-05-09T09:34:49.161Z,56.73
2023-05-09T09:35:49.213Z,45.89
2023-05-09T09:36:49.270Z,58.55
2023-05-09T09:37:49.240Z,51.53
2023-05-09T09:38:49.262Z,27.27
2023-05-09T09:39:49.344Z,15.48
2023-05-09T09:40:49.410Z,0.00
2023-05-09T09:41:49.439Z,0.00
2023-05-09T09:42:49.464Z,2.22
2023-05-09T09:43:49.532Z,9.44
2023-05-09T09:44:49.572Z,7.32
2023-05-09T09:45:49.620Z,6.97
2023-05-09T09:46:49.614Z,11.31
2023-05-09T09:47:49.741Z,17.00
2023-05-09T09:48:49.658Z,17.21
2023-05-09T09:49:49.717Z,33.98
2023-05-09T09:50:49.725Z,57.67
2023-05-09T09:51:49.794Z,68.32
2023-05-09T09:52:49.846Z,77.25
2023-05-09T09:53:49.908Z,58.96
2023-05-09T09:54:49.852Z,46.30
2023-05-09T09:55:49.910Z,47.25
2023-05-09T09:56:49.983Z,43.80
2023-05-09T09:57:49.995Z,27.11
2023-05-09T09:58:50.004Z,28.98
2023-05-09T09:59:50.011Z,25.00
2023-05-09T10:00:50.057Z,25.68
2023-05-09T10:01:50.253Z,36.07
2023-05-09T10:02:50.174Z,32.35
2023-05-09T10:03:50.304Z,10.52
2023-05-09T10:04:50.229Z,8.96
2023-05-09T10:05:50.262Z,33.20
2023-05-09T10:06:50.254Z,25.12
2023-05-09T10:07:50.299Z,15.95
2023-05-09T10:08:50.340Z,18.20
2023-05-09T10:09:50.341Z,25.08
2023-05-09T10:10:50.393Z,42.43
2023-05-09T10:11:50.425Z,40.02
2023-05-09T10:12:50.475Z,25.20
2023-05-09T10:13:50.439Z,9.74
2023-05-09T10:14:50.477Z,4.01
2023-05-09T10:15:53.910Z,5.77
2023-05-09T10:16:50.584Z,0.51
2023-05-09T10:17:50.584Z,8.12
2023-05-09T10:18:50.589Z,11.21
2023-05-09T10:19:50.552Z,3.03
2023-05-09T10:20:50.486Z,0.00
2023-05-09T10:21:50.493Z,0.00
2023-05-09T10:22:50.447Z,1.53
2023-05-09T10:23:50.468Z,0.76
2023-05-09T10:24:50.453Z,17.13
2023-05-09T10:25:50.496Z,26.61
2023-05-09T10:26:50.427Z,30.58
2023-05-09T10:27:50.687Z,32.53
2023-05-09T10:28:50.438Z,41.14
2023-05-09T10:29:50.396Z,41.41
2023-05-09T10:30:50.418Z,57.04
2023-05-09T10:31:50.464Z,58.42
2023-05-09T10:32:50.524Z,63.10
2023-05-09T10:33:50.424Z,60.37
2023-05-09T10:34:50.401Z,44.57
2023-05-09T10:35:50.471Z,39.69
2023-05-09T10:36:50.387Z,40.77
2023-05-09T10:37:50.379Z,47.12
2023-05-09T10:38:50.360Z,49.91
2023-05-09T10:39:50.408Z,39.56
2023-05-09T10:40:50.359Z,34.56
2023-05-09T10:41:50.329Z,27.49
2023-05-09T10:42:50.312Z,22.71
2023-05-09T10:43:50.322Z,13.95
2023-05-09T10:44:50.337Z,14.67
2023-05-09T10:45:50.336Z,12.88
2023-05-09T10:46:50.380Z,9.94
2023-05-09T10:47:50.326Z,16.87
2023-05-09T10:48:50.283Z,20.49
2023-05-09T10:49:50.292Z,13.25
2023-05-09T10:50:50.294Z,25.33
2023-05-09T10:51:50.373Z,27.18
2023-05-09T10:52:50.309Z,12.56
2023-05-09T10:53:50.350Z,25.01
2023-05-09T10:54:50.249Z,40.24
2023-05-09T10:55:50.295Z,58.46
2023-05-09T10:56:50.228Z,66.84
2023-05-09T10:57:50.246Z,61.54
2023-05-09T10:58:50.246Z,54.56
2023-05-09T10:59:50.220Z,51.39
2023-05-09T11:00:50.246Z,55.24
2023-05-09T11:01:50.295Z,49.31
2023-05-09T11:02:50.407Z,54.21
2023-05-09T11:03:50.429Z,61.01
2023-05-09T11:04:50.353Z,64.07
2023-05-09T11:05:50.357Z,59.38
2023-05-09T11:06:50.413Z,63.21
2023-05-09T11:07:50.534Z,62.99
2023-05-09T11:08:50.499Z,52.00
2023-05-09T11:09:50.531Z,59.80
2023-05-09T11:10:50.532Z,61.68
2023-05-09T11:11:50.532Z,54.94
2023-05-09T11:12:50.604Z,57.59
2023-05-09T11:13:50.601Z,53.67
2023-05-09T11:14:50.628Z,54.16
2023-05-09T11:15:50.698Z,54.43
2023-05-09T11:16:50.958Z,54.94
2023-05-09T11:17:50.750Z,51.06
2023-05-09T11:18:50.768Z,52.73
2023-05-09T11:19:50.769Z,48.45
2023-05-09T11:20:50.792Z,54.53
2023-05-09T11:21:50.842Z,52.99
2023-05-09T11:22:50.887Z,40.48
2023-05-09T11:23:52.381Z,34.34
2023-05-09T11:24:50.906Z,30.89
2023-05-09T11:25:50.944Z,40.79
2023-05-09T11:26:50.912Z,41.00
2023-05-09T11:27:50.899Z,44.12
2023-05-09T11:28:50.895Z,64.07
2023-05-09T11:29:50.872Z,68.07
2023-05-09T11:30:50.832Z,46.79
2023-05-09T11:31:50.872Z,51.56
2023-05-09T11:32:50.864Z,46.67
2023-05-09T11:33:50.853Z,43.82
2023-05-09T11:34:50.849Z,37.35
2023-05-09T11:35:50.835Z,64.21
2023-05-09T11:36:50.847Z,46.42
2023-05-09T11:37:50.819Z,35.09
2023-05-09T11:38:50.838Z,36.58
2023-05-09T11:39:50.883Z,36.94
2023-05-09T11:40:50.808Z,46.71
2023-05-09T11:41:50.773Z,41.92
2023-05-09T11:42:50.830Z,30.04
2023-05-09T11:43:50.774Z,18.27
2023-05-09T11:44:50.753Z,15.93
2023-05-09T11:45:50.770Z,11.04
2023-05-09T11:46:50.746Z,6.24
2023-05-09T11:47:50.786Z,11.54
2023-05-09T11:48:50.746Z,30.06
2023-05-09T11:49:50.711Z,31.42
2023-05-09T11:50:50.770Z,27.10
2023-05-09T11:51:50.721Z,24.15
2023-05-09T11:52:50.764Z,21.58
2023-05-09T11:53:50.718Z,25.05
2023-05-09T11:54:50.707Z,32.10
2023-05-09T11:55:50.862Z,37.20
2023-05-09T11:56:50.692Z,39.60
2023-05-09T11:57:50.686Z,35.83
2023-05-09T11:58:50.714Z,25.93
2023-05-09T11:59:50.657Z,30.01
2023-05-09T12:00:50.657Z,21.15
2023-05-09T12:01:50.673Z,16.67
2023-05-09T12:02:50.729Z,14.78
2023-05-09T12:03:50.720Z,20.28
2023-05-09T12:04:50.617Z,25.64
2023-05-09T12:05:50.699Z,27.46
2023-05-09T12:06:50.628Z,28.88
2023-05-09T12:07:50.602Z,27.73
2023-05-09T12:08:50.629Z,26.70
2023-05-09T12:09:50.625Z,27.52
2023-05-09T12:10:50.622Z,25.19
2023-05-09T12:11:50.689Z,31.67
2023-05-09T12:12:50.665Z,30.65
2023-05-09T12:13:50.610Z,28.25
2023-05-09T12:14:50.576Z,22.01
2023-05-09T12:15:50.695Z,26.23
2023-05-09T12:16:50.577Z,26.52
2023-05-09T12:17:52.039Z,44.86
2023-05-09T12:18:50.586Z,39.53
2023-05-09T12:19:50.536Z,39.59
2023-05-09T12:20:50.640Z,32.49
2023-05-09T12:21:50.516Z,48.10
2023-05-09T12:22:50.559Z,53.73
2023-05-09T12:23:52.575Z,64.51
2023-05-09T12:24:50.530Z,46.01
2023-05-09T12:25:50.653Z,41.86
2023-05-09T12:26:50.544Z,37.65
2023-05-09T12:27:50.636Z,33.01
2023-05-09T12:28:50.512Z,32.32
2023-05-09T12:29:50.909Z,30.68
2023-05-09T12:30:50.506Z,34.23
2023-05-09T12:31:50.507Z,37.05
2023-05-09T12:32:50.589Z,44.33
2023-05-09T12:33:50.508Z,40.13
2023-05-09T12:34:50.478Z,41.17
2023-05-09T12:35:50.714Z,41.06
2023-05-09T12:36:50.478Z,27.20
2023-05-09T12:37:50.480Z,28.45